createdAt,value
2024-05-09T00:01:14.892Z,0.93
2024-05-09T00:03:46.922Z,0.82
2024-05-09T00:06:20.382Z,1.55
2024-05-09T00:08:51.392Z,1.58
2024-05-09T00:11:23.691Z,1.38
2024-05-09T00:13:56.562Z,1.50
2024-05-09T00:16:27.062Z,0.88
2024-05-09T00:18:58.554Z,1.52
2024-05-09T00:21:32.109Z,1.50
2024-05-09T00:24:02.895Z,1.55
2024-05-09T00:26:34.169Z,1.23
2024-05-09T00:29:05.396Z,1.65
2024-05-09T00:31:36.011Z,1.30
2024-05-09T00:34:06.474Z,2.03
2024-05-09T00:36:42.193Z,0.88
2024-05-09T00:39:12.719Z,1.38
2024-05-09T00:41:43.527Z,1.77
2024-05-09T00:44:14.376Z,1.88
2024-05-09T00:46:45.195Z,1.95
2024-05-09T00:49:16.418Z,1.50
2024-05-09T00:51:49.561Z,1.33
2024-05-09T00:54:21.518Z,1.25
2024-05-09T00:56:53.352Z,0.73
2024-05-09T00:59:24.283Z,1.42
2024-05-09T01:01:54.899Z,0.60
2024-05-09T01:04:25.905Z,1.45
2024-05-09T01:06:59.609Z,1.23
2024-05-09T01:09:30.380Z,1.42
2024-05-09T01:12:02.584Z,1.67
2024-05-09T01:14:33.054Z,1.27
2024-05-09T01:17:03.914Z,0.80
2024-05-09T01:19:35.700Z,1.70
2024-05-09T01:22:09.102Z,1.55
2024-05-09T01:24:44.404Z,1.00
2024-05-09T01:27:15.123Z,1.75
2024-05-09T01:29:45.651Z,1.52
2024-05-09T01:32:16.456Z,1.90
2024-05-09T01:34:47.006Z,1.67
2024-05-09T01:37:17.400Z,2.13
2024-05-09T01:39:50.635Z,2.08
2024-05-09T01:42:21.517Z,1.77
2024-05-09T01:44:51.896Z,1.42
2024-05-09T01:47:22.535Z,2.03
2024-05-09T01:49:53.112Z,1.80
2024-05-09T01:52:23.790Z,1.77
2024-05-09T01:54:56.838Z,1.67
2024-05-09T01:57:29.074Z,1.58
2024-05-09T02:00:00.258Z,1.77
2024-05-09T02:02:31.123Z,2.15
2024-05-09T02:05:01.770Z,1.65
2024-05-09T02:07:32.234Z,1.25
2024-05-09T02:10:13.587Z,1.02
2024-05-09T02:12:48.749Z,1.00
2024-05-09T02:15:19.654Z,1.48
2024-05-09T02:17:50.716Z,1.38
2024-05-09T02:20:30.253Z,1.67
2024-05-09T02:23:07.016Z,1.65
2024-05-09T02:25:40.379Z,2.22
2024-05-09T02:28:10.974Z,2.15
2024-05-09T02:30:42.460Z,2.08
2024-05-09T02:33:14.460Z,1.20
2024-05-09T02:35:45.331Z,1.90
2024-05-09T02:38:13.650Z,0.88
2024-05-09T02:40:47.815Z,1.35
2024-05-09T02:43:15.918Z,1.85
2024-05-09T02:45:46.722Z,1.35
2024-05-09T02:48:15.041Z,1.08
2024-05-09T02:50:47.855Z,2.03
2024-05-09T02:53:16.227Z,1.98
2024-05-09T02:55:49.805Z,2.17
2024-05-09T02:58:20.364Z,2.10
2024-05-09T03:00:48.229Z,1.73
2024-05-09T03:03:19.378Z,1.60
2024-05-09T03:05:47.746Z,2.17
2024-05-09T03:08:18.474Z,1.40
2024-05-09T03:10:49.089Z,2.05
2024-05-09T03:13:19.462Z,1.90
2024-05-09T03:15:47.195Z,1.52
2024-05-09T03:18:20.078Z,1.63
2024-05-09T03:20:48.252Z,2.10
2024-05-09T03:23:19.970Z,1.52
2024-05-09T03:25:50.746Z,2.08
2024-05-09T03:28:21.190Z,2.45
2024-05-09T03:30:49.299Z,2.22
2024-05-09T03:33:20.863Z,2.20
2024-05-09T03:35:49.638Z,1.92
2024-05-09T03:38:21.407Z,1.63
2024-05-09T03:40:54.617Z,1.13
2024-05-09T03:43:24.997Z,1.65
2024-05-09T03:45:52.888Z,1.13
2024-05-09T03:48:38.508Z,0.95
2024-05-09T03:51:07.147Z,1.77
2024-05-09T03:56:11.224Z,2.17
2024-05-09T03:58:42.118Z,1.67
2024-05-09T04:01:09.831Z,1.52
2024-05-09T04:03:40.534Z,1.60
2024-05-09T04:06:08.680Z,2.88
2024-05-09T04:08:39.554Z,3.13
2024-05-09T04:11:10.502Z,1.42
2024-05-09T04:13:40.868Z,1.83
2024-05-09T04:16:11.040Z,1.73
2024-05-09T04:18:42.863Z,1.33
2024-05-09T04:21:10.526Z,0.98
2024-05-09T04:23:41.579Z,1.60
2024-05-09T04:26:13.951Z,1.38
2024-05-09T04:28:44.569Z,1.83
2024-05-09T04:31:12.372Z,1.30
2024-05-09T04:33:42.749Z,1.85
2024-05-09T04:36:10.621Z,3.28
2024-05-09T04:38:40.927Z,1.88
2024-05-09T04:41:11.393Z,2.70
2024-05-09T04:43:42.085Z,2.10
2024-05-09T04:46:09.686Z,2.22
2024-05-09T04:48:40.338Z,2.47
2024-05-09T04:51:08.479Z,2.30
2024-05-09T04:53:40.601Z,1.98
2024-05-09T04:56:11.468Z,3.13
2024-05-09T04:58:41.899Z,2.75
2024-05-09T05:01:09.798Z,2.67
2024-05-09T05:03:40.730Z,2.20
2024-05-09T05:06:08.792Z,2.83
2024-05-09T05:08:39.669Z,2.17
2024-05-09T05:11:07.670Z,3.13
2024-05-09T05:13:41.749Z,2.55
2024-05-09T05:16:10.374Z,2.40
2024-05-09T05:18:41.688Z,3.38
2024-05-09T05:21:09.438Z,3.13
2024-05-09T05:23:40.783Z,2.58
2024-05-09T05:26:10.086Z,2.88
2024-05-09T05:28:43.468Z,2.53
2024-05-09T05:31:10.843Z,2.22
2024-05-09T05:33:41.870Z,2.80
2024-05-09T05:36:10.305Z,2.38
2024-05-09T05:38:40.408Z,2.47
2024-05-09T05:41:27.401Z,2.97
2024-05-09T05:43:57.584Z,2.67
2024-05-09T05:46:27.751Z,2.40
2024-05-09T05:48:55.351Z,2.20
2024-05-09T05:51:25.597Z,2.80
2024-05-09T05:53:53.318Z,2.40
2024-05-09T05:56:23.644Z,2.63
2024-05-09T05:58:51.686Z,2.75
2024-05-09T06:01:24.418Z,2.33
2024-05-09T06:03:52.574Z,2.42
2024-05-09T06:08:52.521Z,1.60
2024-05-09T06:11:23.452Z,2.33
2024-05-09T06:13:51.261Z,2.85
2024-05-09T06:16:24.261Z,2.17
2024-05-09T06:18:51.798Z,1.95
2024-05-09T06:21:22.123Z,2.33
2024-05-09T06:23:50.742Z,2.08
2024-05-09T06:26:21.055Z,2.20
2024-05-09T06:28:48.466Z,2.45
2024-05-09T06:31:19.621Z,2.65
2024-05-09T06:33:50.218Z,2.00
2024-05-09T06:36:21.145Z,1.95
2024-05-09T06:38:48.949Z,2.80
2024-05-09T06:41:19.765Z,2.30
2024-05-09T06:43:47.535Z,1.60
2024-05-09T06:46:18.257Z,1.88
2024-05-09T06:48:49.298Z,2.17
2024-05-09T06:51:19.887Z,2.17
2024-05-09T06:53:48.048Z,2.08
2024-05-09T06:56:18.701Z,1.67
2024-05-09T06:58:46.774Z,2.30
2024-05-09T07:01:17.367Z,2.13
2024-05-09T07:03:45.020Z,2.08
2024-05-09T07:06:18.084Z,1.75
2024-05-09T07:08:46.969Z,2.03
2024-05-09T07:11:18.635Z,2.38
2024-05-09T07:13:46.743Z,2.15
2024-05-09T07:16:17.395Z,1.90
2024-05-09T07:18:49.842Z,1.70
2024-05-09T07:21:23.911Z,1.55
2024-05-09T07:23:51.800Z,1.83
2024-05-09T07:26:22.524Z,1.98
2024-05-09T07:28:50.448Z,2.08
2024-05-09T07:31:21.287Z,2.42
2024-05-09T07:33:49.065Z,1.60
2024-05-09T07:36:22.279Z,1.55
2024-05-09T07:38:50.209Z,1.73
2024-05-09T07:41:20.878Z,1.05
2024-05-09T07:43:48.867Z,1.52
2024-05-09T07:47:14.498Z,1.80
2024-05-09T07:53:17.123Z,2.10
2024-05-09T07:54:32.650Z,1.20
2024-05-09T07:57:03.401Z,1.83
2024-05-09T07:59:35.077Z,1.95
2024-05-09T08:02:08.534Z,1.40
2024-05-09T08:04:36.422Z,1.60
2024-05-09T08:07:09.840Z,1.40
2024-05-09T08:09:39.841Z,1.70
2024-05-09T08:12:12.849Z,1.67
2024-05-09T08:14:40.959Z,2.25
2024-05-09T08:17:12.354Z,1.75
2024-05-09T08:19:40.960Z,1.08
2024-05-09T08:22:14.284Z,1.30
2024-05-09T08:24:42.166Z,1.27
2024-05-09T08:27:13.166Z,1.38
2024-05-09T08:29:41.871Z,1.17
2024-05-09T08:32:13.890Z,1.67
2024-05-09T08:34:42.359Z,1.70
2024-05-09T08:37:21.511Z,1.60
2024-05-09T08:39:51.227Z,1.63
2024-05-09T08:42:21.901Z,1.60
2024-05-09T08:44:50.458Z,2.00
2024-05-09T08:49:50.260Z,1.58
2024-05-09T08:52:23.463Z,1.40
2024-05-09T08:54:51.624Z,1.65
2024-05-09T08:57:23.634Z,1.23
2024-05-09T08:59:52.713Z,1.48
2024-05-09T09:02:23.254Z,1.52
2024-05-09T09:04:56.962Z,1.85
2024-05-09T09:07:31.365Z,0.93
2024-05-09T09:10:01.016Z,1.00
2024-05-09T09:12:32.424Z,1.90
2024-05-09T09:15:00.790Z,1.30
2024-05-09T09:17:31.199Z,1.40
2024-05-09T09:20:00.521Z,1.55
2024-05-09T09:22:36.618Z,1.25
2024-05-09T09:25:04.990Z,1.20
2024-05-09T09:30:05.482Z,1.15
2024-05-09T09:32:39.467Z,1.05
2024-05-09T09:35:08.433Z,1.58
2024-05-09T09:37:41.786Z,0.98
2024-05-09T09:42:44.922Z,1.10
2024-05-09T09:45:13.397Z,1.30
2024-05-09T09:50:16.888Z,0.85
2024-05-09T09:52:54.859Z,1.63
2024-05-09T09:55:24.833Z,1.30
2024-05-09T09:57:59.324Z,1.55
2024-05-09T10:00:33.017Z,1.98
2024-05-09T10:03:04.799Z,1.67
2024-05-09T10:05:33.972Z,1.63
2024-05-09T10:08:09.965Z,1.33
2024-05-09T10:10:38.404Z,0.80
2024-05-09T10:15:45.907Z,1.25
2024-05-09T10:18:16.704Z,1.10
2024-05-09T10:20:46.846Z,1.25
2024-05-09T10:23:33.672Z,1.25
2024-05-09T10:26:03.240Z,1.52
2024-05-09T10:28:36.231Z,0.95
2024-05-09T10:31:08.135Z,0.60
2024-05-09T10:33:43.104Z,1.10
2024-05-09T10:36:14.488Z,1.10
2024-05-09T10:38:47.822Z,1.35
2024-05-09T10:41:17.792Z,1.30
2024-05-09T10:43:48.643Z,1.40
2024-05-09T10:46:19.033Z,1.67
2024-05-09T10:48:50.953Z,1.10
2024-05-09T10:51:21.574Z,1.02
2024-05-09T10:53:56.807Z,1.10
2024-05-09T10:56:25.812Z,0.63
2024-05-09T10:58:56.731Z,0.75
2024-05-09T11:01:27.319Z,0.73
2024-05-09T11:03:57.966Z,0.82
2024-05-09T11:06:26.722Z,0.90
2024-05-09T11:09:00.241Z,1.00
2024-05-09T11:11:28.109Z,1.20
2024-05-09T11:13:59.248Z,1.13
2024-05-09T11:16:27.514Z,1.38
2024-05-09T11:19:00.334Z,1.27
2024-05-09T11:21:28.162Z,1.00
2024-05-09T11:24:02.592Z,1.20
2024-05-09T11:26:33.991Z,1.05
2024-05-09T11:29:05.003Z,1.10
2024-05-09T11:31:33.410Z,1.08
2024-05-09T11:39:09.285Z,0.70
2024-05-09T11:41:37.685Z,0.55
2024-05-09T11:46:36.257Z,1.00
2024-05-09T11:49:07.436Z,1.05
2024-05-09T11:51:35.875Z,1.17
2024-05-09T11:54:09.046Z,0.88
2024-05-09T11:56:36.723Z,0.68
2024-05-09T11:59:07.563Z,1.50
2024-05-09T12:01:35.330Z,0.98
2024-05-09T12:04:06.371Z,1.27
2024-05-09T12:06:34.587Z,1.60
2024-05-09T12:09:04.871Z,1.05
2024-05-09T12:11:35.196Z,1.17
2024-05-09T12:14:08.985Z,2.03
2024-05-09T12:16:38.548Z,1.38
2024-05-09T12:19:09.558Z,1.10
2024-05-09T12:21:37.414Z,1.25
2024-05-09T12:24:08.545Z,1.05
2024-05-09T12:26:38.880Z,1.13
2024-05-09T12:29:10.206Z,1.10
2024-05-09T12:31:37.776Z,1.10
2024-05-09T12:34:08.350Z,1.33
2024-05-09T12:36:36.548Z,1.10
2024-05-09T12:39:06.816Z,1.02
2024-05-09T12:41:34.549Z,0.90
2024-05-09T12:44:07.852Z,1.15
2024-05-09T12:46:35.801Z,0.88
2024-05-09T12:49:06.565Z,1.10
2024-05-09T12:51:34.809Z,1.23
2024-05-09T12:54:05.661Z,1.40
2024-05-09T12:56:33.647Z,0.73
2024-05-09T12:59:06.884Z,1.10
2024-05-09T13:01:34.713Z,1.20
2024-05-09T13:04:05.994Z,1.20
2024-05-09T13:06:34.288Z,1.02
2024-05-09T13:09:04.906Z,0.80
2024-05-09T13:11:32.756Z,0.80
2024-05-09T13:14:03.330Z,0.80
2024-05-09T13:16:34.103Z,1.10
2024-05-09T13:19:04.622Z,1.02
2024-05-09T13:21:32.311Z,0.52
2024-05-09T13:24:02.776Z,1.10
2024-05-09T13:26:30.569Z,0.70
2024-05-09T13:29:01.267Z,1.00
2024-05-09T13:31:29.009Z,0.95
2024-05-09T13:34:02.695Z,1.42
2024-05-09T13:36:30.723Z,1.17
2024-05-09T13:39:01.154Z,1.02
2024-05-09T13:41:29.023Z,1.30
2024-05-09T13:43:59.921Z,1.02
2024-05-09T13:46:29.526Z,1.10
2024-05-09T13:49:04.825Z,0.80
2024-05-09T13:51:34.373Z,1.05
2024-05-09T13:54:04.782Z,0.95
2024-05-09T13:56:32.789Z,1.02
2024-05-09T13:59:03.907Z,1.30
2024-05-09T14:01:31.616Z,0.80
2024-05-09T14:04:05.138Z,0.93
2024-05-09T14:06:33.240Z,1.17
2024-05-09T14:09:04.812Z,0.95
2024-05-09T14:11:32.511Z,1.02
2024-05-09T14:14:03.194Z,1.00
2024-05-09T14:16:31.510Z,1.48
2024-05-09T14:19:04.950Z,1.25
2024-05-09T14:21:33.239Z,1.13
2024-05-09T14:26:31.233Z,0.90
2024-05-09T14:29:02.375Z,1.50
2024-05-09T14:31:30.418Z,0.93
2024-05-09T14:34:04.922Z,1.17
2024-05-09T14:36:33.537Z,0.95
2024-05-09T14:39:04.270Z,1.25
2024-05-09T14:41:32.014Z,0.90
2024-05-09T14:44:02.771Z,1.00
2024-05-09T14:46:30.737Z,1.52
2024-05-09T14:49:02.728Z,1.00
2024-05-09T14:51:33.219Z,0.85
2024-05-09T14:54:03.698Z,1.30
2024-05-09T14:56:31.584Z,1.27
2024-05-09T14:59:02.424Z,1.00
2024-05-09T15:01:31.158Z,1.10
2024-05-09T15:04:02.643Z,1.20
2024-05-09T15:06:33.168Z,0.90
2024-05-09T15:09:06.826Z,0.95
2024-05-09T15:11:35.057Z,1.02
2024-05-09T15:16:35.377Z,1.00
2024-05-09T15:19:06.256Z,1.10
2024-05-09T15:21:37.225Z,1.00
2024-05-09T15:24:08.665Z,1.00
2024-05-09T15:26:37.564Z,1.05
2024-05-09T15:29:08.090Z,1.35
2024-05-09T15:31:36.117Z,1.00
2024-05-09T15:34:08.350Z,0.98
2024-05-09T15:36:41.040Z,0.77
2024-05-09T15:39:12.618Z,1.15
2024-05-09T15:41:40.822Z,1.10
2024-05-09T15:46:39.024Z,0.90
2024-05-09T15:49:10.104Z,1.10
2024-05-09T15:51:40.647Z,0.95
2024-05-09T15:54:11.527Z,1.17
2024-05-09T15:56:39.393Z,0.98
2024-05-09T15:59:09.999Z,1.30
2024-05-09T16:01:37.853Z,1.00
2024-05-09T16:04:10.514Z,0.88
2024-05-09T16:06:41.799Z,1.10
2024-05-09T16:09:12.466Z,0.90
2024-05-09T16:11:40.419Z,0.75
2024-05-09T16:14:10.790Z,1.42
2024-05-09T16:16:38.792Z,1.30
2024-05-09T16:19:10.101Z,1.08
2024-05-09T16:21:41.155Z,1.00
2024-05-09T16:24:11.747Z,1.00
2024-05-09T16:26:39.657Z,0.95
2024-05-09T16:29:10.459Z,0.95
2024-05-09T16:31:37.833Z,1.25
2024-05-09T16:34:08.252Z,1.27
2024-05-09T16:36:35.993Z,0.82
2024-05-09T16:39:09.079Z,1.45
2024-05-09T16:41:37.475Z,1.02
2024-05-09T16:44:08.023Z,1.38
2024-05-09T16:46:36.010Z,1.13
2024-05-09T16:49:07.219Z,1.52
2024-05-09T16:51:35.078Z,1.27
2024-05-09T16:54:08.799Z,0.98
2024-05-09T16:56:36.748Z,1.10
2024-05-09T16:59:07.213Z,1.60
2024-05-09T17:01:36.402Z,0.93
2024-05-09T17:04:08.991Z,1.55
2024-05-09T17:06:37.369Z,1.05
2024-05-09T17:09:15.651Z,1.17
2024-05-09T17:11:45.837Z,1.15
2024-05-09T17:14:16.788Z,0.80
2024-05-09T17:16:47.444Z,1.17
2024-05-09T17:19:18.268Z,1.15
2024-05-09T17:21:48.022Z,1.30
2024-05-09T17:24:21.972Z,1.00
2024-05-09T17:26:49.787Z,1.08
2024-05-09T17:29:21.632Z,1.10
2024-05-09T17:31:49.456Z,1.40
2024-05-09T17:34:20.235Z,1.00
2024-05-09T17:36:48.240Z,1.00
2024-05-09T17:39:21.347Z,1.05
2024-05-09T17:41:51.365Z,1.17
2024-05-09T17:44:21.793Z,1.20
2024-05-09T17:46:49.811Z,0.90
2024-05-09T17:49:20.626Z,0.80
2024-05-09T17:51:51.985Z,0.82
2024-05-09T17:54:25.117Z,1.00
2024-05-09T17:56:53.065Z,0.82
2024-05-09T17:59:23.450Z,0.90
2024-05-09T18:01:51.288Z,0.70
2024-05-09T18:04:21.887Z,0.90
2024-05-09T18:06:51.549Z,0.80
2024-05-09T18:09:25.891Z,1.10
2024-05-09T18:11:55.020Z,0.90
2024-05-09T18:14:25.807Z,0.95
2024-05-09T18:16:53.457Z,1.02
2024-05-09T18:19:24.006Z,0.98
2024-05-09T18:21:51.806Z,1.10
2024-05-09T18:24:23.036Z,1.52
2024-05-09T18:26:54.034Z,0.95
2024-05-09T18:29:24.624Z,1.13
2024-05-09T18:31:52.609Z,0.95
2024-05-09T18:34:23.083Z,1.05
2024-05-09T18:36:51.318Z,1.27
2024-05-09T18:39:21.817Z,1.73
2024-05-09T18:41:49.865Z,1.15
2024-05-09T18:44:23.445Z,1.17
2024-05-09T18:46:51.260Z,0.88
2024-05-09T18:49:21.689Z,1.00
2024-05-09T18:51:49.470Z,0.90
2024-05-09T18:54:20.029Z,0.88
2024-05-09T18:56:47.795Z,1.10
2024-05-09T18:59:18.625Z,0.73
2024-05-09T19:01:49.194Z,1.10
2024-05-09T19:04:19.917Z,0.70
2024-05-09T19:06:48.008Z,0.52
2024-05-09T19:09:18.535Z,1.13
2024-05-09T19:11:46.257Z,1.25
2024-05-09T19:14:16.972Z,0.70
2024-05-09T19:16:47.637Z,1.10
2024-05-09T19:19:18.388Z,0.90
2024-05-09T19:21:46.262Z,1.13
2024-05-09T19:24:17.306Z,0.80
2024-05-09T19:26:46.203Z,0.93
2024-05-09T19:29:16.943Z,0.90
2024-05-09T19:31:47.258Z,1.33
2024-05-09T19:34:18.217Z,1.30
2024-05-09T19:36:47.176Z,0.77
2024-05-09T19:39:17.494Z,1.00
2024-05-09T19:41:45.332Z,0.82
2024-05-09T19:44:15.694Z,0.82
2024-05-09T19:46:43.252Z,1.10
2024-05-09T19:49:16.174Z,1.08
2024-05-09T19:51:44.806Z,1.02
2024-05-09T19:56:45.624Z,0.85
2024-05-09T19:59:15.864Z,0.52
2024-05-09T20:01:43.723Z,0.73
2024-05-09T20:04:16.645Z,1.00
2024-05-09T20:06:44.234Z,0.43
2024-05-09T20:09:14.315Z,0.57
2024-05-09T20:11:43.266Z,1.33
2024-05-09T20:14:15.097Z,0.57
2024-05-09T20:16:44.486Z,0.85
2024-05-09T20:19:18.103Z,0.68
2024-05-09T20:21:45.553Z,0.55
2024-05-09T20:24:15.943Z,0.77
2024-05-09T20:26:43.982Z,0.57
2024-05-09T20:29:14.412Z,1.00
2024-05-09T20:31:41.773Z,0.80
2024-05-09T20:34:11.960Z,0.70
2024-05-09T20:36:42.009Z,0.88
2024-05-09T20:39:12.095Z,0.60
2024-05-09T20:41:44.299Z,0.80
2024-05-09T20:44:14.731Z,1.20
2024-05-09T20:46:43.499Z,0.95
2024-05-09T20:49:14.167Z,0.57
2024-05-09T20:51:44.447Z,0.75
2024-05-09T20:54:14.997Z,0.75
2024-05-09T20:56:42.731Z,0.88
2024-05-09T20:59:13.042Z,1.15
2024-05-09T21:01:40.507Z,0.68
2024-05-09T21:04:11.250Z,0.57
2024-05-09T21:06:38.758Z,1.10
2024-05-09T21:09:11.941Z,1.63
2024-05-09T21:11:39.779Z,1.63
2024-05-09T21:14:10.321Z,1.25
2024-05-09T21:16:38.982Z,0.95
2024-05-09T21:21:39.696Z,1.38
2024-05-09T21:24:12.808Z,1.23
2024-05-09T21:26:40.165Z,0.82
2024-05-09T21:29:10.574Z,0.70
2024-05-09T21:31:38.108Z,0.90
2024-05-09T21:34:08.493Z,1.63
2024-05-09T21:36:36.138Z,0.40
2024-05-09T21:39:07.204Z,1.27
2024-05-09T21:41:37.422Z,1.17
2024-05-09T21:44:09.091Z,0.60
2024-05-09T21:46:36.460Z,1.60
2024-05-09T21:49:07.314Z,0.70
2024-05-09T21:51:35.005Z,0.90
2024-05-09T21:54:05.353Z,0.75
2024-05-09T21:56:32.694Z,1.52
2024-05-09T21:59:05.585Z,0.95
2024-05-09T22:01:34.378Z,0.80
2024-05-09T22:04:04.856Z,0.80
2024-05-09T22:06:32.522Z,0.80
2024-05-09T22:09:05.402Z,0.60
2024-05-09T22:11:33.026Z,1.20
2024-05-09T22:14:05.771Z,1.00
2024-05-09T22:16:33.393Z,0.75
2024-05-09T22:19:03.699Z,0.80
2024-05-09T22:21:31.215Z,1.50
2024-05-09T22:24:01.802Z,0.40
2024-05-09T22:26:29.113Z,0.95
2024-05-09T22:28:59.033Z,0.82
2024-05-09T22:31:29.240Z,1.38
2024-05-09T22:33:59.448Z,0.77
2024-05-09T22:36:27.126Z,0.75
2024-05-09T22:38:57.575Z,1.30
2024-05-09T22:41:25.339Z,0.68
2024-05-09T22:43:55.638Z,0.77
2024-05-09T22:46:23.418Z,0.75
2024-05-09T22:48:56.470Z,0.47
2024-05-09T22:51:24.037Z,1.13
2024-05-09T22:53:53.916Z,0.60
2024-05-09T22:56:30.322Z,0.90
2024-05-09T22:58:58.289Z,0.70
2024-05-09T23:01:28.740Z,0.90
2024-05-09T23:03:59.069Z,1.08
2024-05-09T23:06:29.856Z,1.33
2024-05-09T23:08:57.201Z,0.65
2024-05-09T23:11:27.428Z,0.93
2024-05-09T23:13:54.872Z,1.08
2024-05-09T23:16:25.170Z,1.10
2024-05-09T23:18:52.684Z,0.88
2024-05-09T23:21:25.240Z,0.70
2024-05-09T23:23:53.329Z,0.47
2024-05-09T23:26:23.587Z,0.93
2024-05-09T23:28:51.892Z,0.57
2024-05-09T23:31:22.331Z,1.10
2024-05-09T23:33:50.448Z,1.00
2024-05-09T23:36:20.586Z,1.00
2024-05-09T23:38:51.076Z,0.55
2024-05-09T23:41:21.055Z,0.88
2024-05-09T23:43:48.759Z,0.73
2024-05-09T23:46:18.922Z,0.60
2024-05-09T23:48:46.467Z,0.70
2024-05-09T23:51:18.217Z,0.60
2024-05-09T23:53:46.081Z,0.63
2024-05-09T23:56:21.616Z,0.90
2024-05-09T23:58:49.006Z,0.68
